Ojai, CA (93023)

10:31 AM PST on December 03, 2016 (GMT -0800)
Fairview Road | | Change Station
Active Advisory: Fire Weather Warning Active Notice: Public Information Statement

Elev 1056 ft 34.46 °N, 119.26 °W | Updated 1 minute ago

Clear
Clear
56.9 °F
Feels Like 56.9 °F
N
0.0
Wind Variable Wind from East

Today
High -- | Low -- °F
--% Chance of Precip.
Yesterday
High -- | Low -- °F
Precip. -- in
Pressure 30.18 in
Visibility 10.0 miles
Clouds Clear
Dew Point 13 °F
Humidity 17%
Rainfall 0.00 in
Snow Depth Not available.
6:47 AM 4:46 PM
Waxing Crescent, 16% visible
METAR KOXR 031751Z 03004KT 10SM CLR 18/M08 A3018 RMK AO2 SLP220 T01781078 10178 20067 51011
Pressure 30.18 in
Visibility 10.0 miles
Clouds Clear
Dew Point 13 °F
Humidity 17%
Rainfall 0.00 in
Snow Depth Not available.
6:47 AM 4:46 PM
Waxing Crescent, 16% visible
METAR KOXR 031751Z 03004KT 10SM CLR 18/M08 A3018 RMK AO2 SLP220 T01781078 10178 20067 51011

10-Day Weather Forecast

Almanac

Astronomy

Dec. 03, 2016 Rise Set
Actual Time
Civil Twilight
Nautical Twilight
Astronomical Twilight
Moon
Length of Visible Light
Length of Day
Tomorrow will be .
, % of the Moon is Illuminated

Today's Extremes

State Highs State Lows

Community

WunderPhotos

Upload Photos

1,955,462 photos uploaded!

WunderBlog® & News

Nearby

Air Quality

  Air Quality AQ Index Pollutant
Not available.

Snow Depth

Station Depth Elevation

Earthquake Activity

City Distance Mag. Time & Date
Minimum magnitude displayed is 2.5.

Coastal Water Temperatures

Place Temperature

Stations

Nearby Weather Stations

Station Location Temp. Windchill Dew Point Humidity Wind Precip. Elev Updated Type
                   

Watches & Warnings

Fire Weather Warning
Issued: 10:04 AM PST Dec. 3, 2016 – National Weather Service

... Red flag warning remains in effect until 6 PM PST this evening
for wind and low relative humidity for the Ventura valleys and
coasts as well as the San Fernando Valley...

* winds... north to northeast winds 20 to 30 mph with gusts to 45
mph through the afternoon. Strongest winds will be elevated and
return onshore flow is expected for the Oxnard plain and west
coastal valleys late this afternoon.

* Relative humidity... 6 to 12 percent.

* Impacts... if fire ignition occurs... conditions may be
favorable for extreme fire behavior which would threaten life
and property. Use extra caution with potential ignition
sources.

Precautionary/preparedness actions...

A red flag warning means that critical fire weather conditions
are either occurring now... or will shortly. A combination of
strong winds... low relative humidity... and warm temperatures will
create extreme fire behavior. Please advise the appropriate
officials or fire crews in the field of this red flag warning.